Time;durP1;ratioP1;P1;durP2;ratioP2;P2;SDS_P1;SDS_P2;PMS_P1;PMS_P2;Temp;Humidity;BMP_temperature;BMP_pressure;BME280_temperature;BME280_humidity;BME280_pressure;Samples;Min_cycle;Max_cycle;Signal;HPM_P1;HPM_P2
2022/03/20 00:01:25;;;;;;;3.93;3.53;;;;;;;;;;4927831;29;20246;-62
2022/03/20 00:03:52;;;;;;;4.43;1.47;;;;;;;;;;4927593;29;20758;-62
2022/03/20 00:06:19;;;;;;;3.93;3.33;;;;;;;;;;4928123;29;20220;-62
2022/03/20 00:08:48;;;;;;;4.00;3.03;;;;;;;;;;4927599;29;20211;-62
2022/03/20 00:11:15;;;;;;;2.53;2.37;;;;;;;;;;4927750;29;20246;-62
2022/03/20 00:13:44;;;;;;;4.13;3.67;;;;;;;;;;4927154;29;20438;-62
2022/03/20 00:16:11;;;;;;;10.67;4.03;;;;;;;;;;4928367;29;20270;-62
2022/03/20 00:18:38;;;;;;;11.90;5.97;;;;;;;;;;4927815;29;20302;-62
2022/03/20 00:21:05;;;;;;;6.63;3.37;;;;;;;;;;4928377;29;20225;-62
2022/03/20 00:23:34;;;;;;;3.17;1.93;;;;;;;;;;4927683;29;20263;-63
2022/03/20 00:26:02;;;;;;;4.13;1.50;;;;;;;;;;4927850;29;20278;-63
2022/03/20 00:28:29;;;;;;;9.43;5.63;;;;;;;;;;4927374;29;20216;-63
2022/03/20 00:30:57;;;;;;;7.67;3.27;;;;;;;;;;4927763;29;20652;-60
2022/03/20 00:33:24;;;;;;;8.80;5.90;;;;;;;;;;4926779;29;20234;-63
2022/03/20 00:35:51;;;;;;;5.90;3.97;;;;;;;;;;4927520;29;20232;-63
2022/03/20 00:38:19;;;;;;;10.47;4.43;;;;;;;;;;4927855;29;20211;-62
2022/03/20 00:40:46;;;;;;;7.23;5.17;;;;;;;;;;4927656;29;20342;-62
2022/03/20 00:43:15;;;;;;;6.80;5.20;;;;;;;;;;4927863;29;20286;-62
2022/03/20 00:45:42;;;;;;;9.23;6.87;;;;;;;;;;4927769;29;20701;-62
2022/03/20 00:48:09;;;;;;;10.67;4.93;;;;;;;;;;4927905;29;20781;-61
2022/03/20 00:50:36;;;;;;;2.60;2.23;;;;;;;;;;4927502;29;20293;-62
2022/03/20 00:53:04;;;;;;;11.70;5.03;;;;;;;;;;4926901;29;20274;-62
2022/03/20 00:55:31;;;;;;;10.33;4.83;;;;;;;;;;4927298;29;20211;-62
2022/03/20 00:57:58;;;;;;;8.10;5.73;;;;;;;;;;4926846;29;20991;-61
2022/03/20 01:00:26;;;;;;;8.03;4.47;;;;;;;;;;4926713;29;20204;-62
2022/03/20 01:02:53;;;;;;;8.70;4.93;;;;;;;;;;4927300;29;20212;-62
2022/03/20 01:05:20;;;;;;;8.57;4.43;;;;;;;;;;4926954;29;20215;-61
2022/03/20 01:07:48;;;;;;;4.97;3.60;;;;;;;;;;4927776;29;20752;-62
2022/03/20 01:10:15;;;;;;;5.70;3.23;;;;;;;;;;4927095;29;20282;-62
2022/03/20 01:12:42;;;;;;;9.83;6.17;;;;;;;;;;4929110;29;20215;-62
2022/03/20 01:15:10;;;;;;;8.50;5.63;;;;;;;;;;4930940;29;20219;-62
2022/03/20 01:17:38;;;;;;;5.73;4.60;;;;;;;;;;4930455;29;20211;-61
2022/03/20 01:20:08;;;;;;;9.07;4.63;;;;;;;;;;4929672;29;21000;-61
2022/03/20 01:22:35;;;;;;;7.40;4.50;;;;;;;;;;4930513;29;20945;-61
2022/03/20 01:25:04;;;;;;;7.83;4.70;;;;;;;;;;4930824;29;20211;-61
2022/03/20 01:27:31;;;;;;;5.57;3.03;;;;;;;;;;4930719;29;20870;-62
2022/03/20 01:29:58;;;;;;;7.90;4.73;;;;;;;;;;4930247;29;20259;-62
2022/03/20 01:32:28;;;;;;;2.03;1.90;;;;;;;;;;4931010;29;20497;-62
2022/03/20 01:34:56;;;;;;;4.70;3.80;;;;;;;;;;4929823;29;20600;-62
2022/03/20 01:37:23;;;;;;;12.20;5.63;;;;;;;;;;4930680;29;20203;-62
2022/03/20 01:39:52;;;;;;;9.27;4.03;;;;;;;;;;4930382;29;20216;-63
2022/03/20 01:42:19;;;;;;;11.40;5.23;;;;;;;;;;4930813;29;20223;-60
2022/03/20 01:44:46;;;;;;;8.73;4.97;;;;;;;;;;4929979;29;20219;-61
2022/03/20 01:47:13;;;;;;;4.57;3.73;;;;;;;;;;4930531;29;20239;-61
2022/03/20 01:49:40;;;;;;;6.47;5.00;;;;;;;;;;4929954;29;20655;-61
2022/03/20 01:52:13;;;;;;;8.23;4.90;;;;;;;;;;4930318;29;20975;-61
2022/03/20 01:54:41;;;;;;;8.57;3.87;;;;;;;;;;4930009;29;20238;-61
2022/03/20 01:57:09;;;;;;;7.57;5.00;;;;;;;;;;4930418;29;20294;-62
2022/03/20 01:59:36;;;;;;;6.30;4.40;;;;;;;;;;4929779;29;20217;-62
2022/03/20 02:02:04;;;;;;;7.43;4.33;;;;;;;;;;4930159;29;20696;-62
2022/03/20 02:04:31;;;;;;;7.90;4.63;;;;;;;;;;4929869;29;20266;-62
2022/03/20 02:07:00;;;;;;;3.53;2.60;;;;;;;;;;4930065;29;20223;-62
2022/03/20 02:09:28;;;;;;;9.47;4.63;;;;;;;;;;4929512;29;20302;-61
2022/03/20 02:11:56;;;;;;;6.17;4.87;;;;;;;;;;4929918;29;20977;-62
2022/03/20 02:14:23;;;;;;;4.83;4.33;;;;;;;;;;4929405;29;20212;-62
2022/03/20 02:16:51;;;;;;;12.93;5.50;;;;;;;;;;4929770;29;20215;-62
2022/03/20 02:19:18;;;;;;;5.47;3.40;;;;;;;;;;4928564;29;20220;-62
2022/03/20 02:21:47;;;;;;;2.70;1.53;;;;;;;;;;4929834;29;20267;-62
2022/03/20 02:24:31;;;;;;;11.13;5.87;;;;;;;;;;4929430;29;20222;-62
2022/03/20 02:27:04;;;;;;;2.40;2.20;;;;;;;;;;4929852;29;20270;-62
2022/03/20 02:29:32;;;;;;;18.73;5.00;;;;;;;;;;4929615;29;20235;-61
2022/03/20 02:31:59;;;;;;;19.33;5.60;;;;;;;;;;4928783;29;20220;-61
2022/03/20 02:34:26;;;;;;;10.27;5.37;;;;;;;;;;4922777;29;20239;-62
2022/03/20 02:36:55;;;;;;;5.63;3.50;;;;;;;;;;4923342;29;20998;-62
2022/03/20 02:39:22;;;;;;;4.60;3.07;;;;;;;;;;4923629;29;20209;-61
2022/03/20 02:41:49;;;;;;;10.33;4.67;;;;;;;;;;4923303;29;20201;-61
2022/03/20 02:44:16;;;;;;;7.03;4.93;;;;;;;;;;4922514;29;20219;-61
2022/03/20 02:46:44;;;;;;;8.20;4.27;;;;;;;;;;4923385;29;20322;-62
2022/03/20 02:49:11;;;;;;;8.37;3.90;;;;;;;;;;4923419;29;20220;-62
2022/03/20 02:51:38;;;;;;;11.40;5.20;;;;;;;;;;4922686;29;20725;-62
2022/03/20 02:54:07;;;;;;;8.37;5.13;;;;;;;;;;4920328;29;20995;-62
2022/03/20 02:56:34;;;;;;;12.07;5.40;;;;;;;;;;4923526;29;20315;-62
2022/03/20 02:59:02;;;;;;;10.87;5.67;;;;;;;;;;4921638;29;20216;-62
2022/03/20 03:01:30;;;;;;;4.80;4.10;;;;;;;;;;4925151;29;20206;-62
2022/03/20 03:03:57;;;;;;;12.60;4.57;;;;;;;;;;4925010;29;20204;-62
2022/03/20 03:06:24;;;;;;;9.00;4.97;;;;;;;;;;4924533;29;20366;-62
2022/03/20 03:11:37;;;;;;;7.63;4.00;;;;;;;;;;4922823;29;20627;-62
2022/03/20 03:15:18;;;;;;;7.13;4.03;;;;;;;;;;4924956;29;20223;-63
2022/03/20 03:16:51;;;;;;;7.40;4.43;;;;;;;;;;4922880;29;20224;-62
2022/03/20 03:19:18;;;;;;;8.30;4.97;;;;;;;;;;4923351;29;20234;-62
2022/03/20 03:21:45;;;;;;;3.40;3.10;;;;;;;;;;4922622;29;20209;-62
2022/03/20 03:24:12;;;;;;;5.93;3.97;;;;;;;;;;4924824;29;20212;-62
2022/03/20 03:26:41;;;;;;;6.23;4.53;;;;;;;;;;4919724;29;20212;-62
2022/03/20 03:29:08;;;;;;;8.07;4.33;;;;;;;;;;4924410;29;20227;-62
2022/03/20 03:31:35;;;;;;;8.43;5.27;;;;;;;;;;4924094;29;20230;-62
2022/03/20 03:36:47;;;;;;;8.03;5.20;;;;;;;;;;4921570;29;20721;-62
2022/03/20 03:39:14;;;;;;;9.87;4.87;;;;;;;;;;4922955;29;20693;-62
2022/03/20 03:41:42;;;;;;;7.00;4.67;;;;;;;;;;4921490;29;20226;-62
2022/03/20 03:44:09;;;;;;;6.87;5.20;;;;;;;;;;4923369;29;20223;-62
2022/03/20 03:46:36;;;;;;;4.60;2.90;;;;;;;;;;4925210;29;20203;-62
2022/03/20 03:49:03;;;;;;;15.97;6.57;;;;;;;;;;4920467;29;20568;-62
2022/03/20 03:51:30;;;;;;;11.00;5.67;;;;;;;;;;4922131;29;20242;-62
2022/03/20 03:53:57;;;;;;;6.07;3.53;;;;;;;;;;4920825;29;20220;-62
2022/03/20 03:56:24;;;;;;;1.23;1.23;;;;;;;;;;4923383;29;20833;-62
2022/03/20 03:58:52;;;;;;;15.07;5.50;;;;;;;;;;4921256;29;20209;-62
2022/03/20 04:01:20;;;;;;;13.73;5.23;;;;;;;;;;4921151;29;20212;-62
2022/03/20 04:03:47;;;;;;;8.87;4.90;;;;;;;;;;4922509;29;20683;-62
2022/03/20 04:06:14;;;;;;;3.17;2.40;;;;;;;;;;4920803;29;20258;-62
2022/03/20 04:08:41;;;;;;;7.33;4.17;;;;;;;;;;4921509;29;20214;-62
2022/03/20 04:11:08;;;;;;;9.53;4.50;;;;;;;;;;4920723;29;20317;-62
2022/03/20 04:13:35;;;;;;;4.13;2.63;;;;;;;;;;4922576;29;20204;-61
2022/03/20 04:16:05;;;;;;;6.77;3.87;;;;;;;;;;4922028;29;20207;-61
2022/03/20 04:18:32;;;;;;;14.77;5.33;;;;;;;;;;4921415;29;20241;-60
2022/03/20 04:20:59;;;;;;;8.03;4.50;;;;;;;;;;4920912;29;20267;-60
2022/03/20 04:23:48;;;;;;;7.90;4.27;;;;;;;;;;4921340;29;20217;-63
2022/03/20 04:26:15;;;;;;;6.87;3.53;;;;;;;;;;4922070;29;20302;-60
2022/03/20 04:28:44;;;;;;;7.50;4.17;;;;;;;;;;4919722;29;20235;-63
2022/03/20 04:31:15;;;;;;;7.83;4.87;;;;;;;;;;4921592;29;20771;-61
2022/03/20 04:33:42;;;;;;;7.07;4.57;;;;;;;;;;4921902;29;20526;-62
2022/03/20 04:36:09;;;;;;;12.60;5.20;;;;;;;;;;4921718;29;20215;-61
2022/03/20 04:38:36;;;;;;;9.97;6.33;;;;;;;;;;4920758;29;20216;-61
2022/03/20 04:41:03;;;;;;;12.20;5.57;;;;;;;;;;4923117;29;20214;-61
2022/03/20 04:43:31;;;;;;;10.70;6.03;;;;;;;;;;4921095;29;20211;-60
2022/03/20 04:45:58;;;;;;;11.83;5.63;;;;;;;;;;4920747;29;20211;-60
2022/03/20 04:59:26;;;;;;;11.67;5.93;;;;;;;;;;4921654;29;20204;-61
2022/03/20 05:01:53;;;;;;;9.93;6.10;;;;;;;;;;4921572;29;20211;-61
2022/03/20 05:04:21;;;;;;;11.37;5.80;;;;;;;;;;4921194;29;20683;-61
2022/03/20 05:06:48;;;;;;;12.20;5.23;;;;;;;;;;4920855;29;20218;-61
2022/03/20 05:14:45;;;;;;;12.67;6.27;;;;;;;;;;4920713;29;20215;-61
2022/03/20 05:17:12;;;;;;;6.13;4.20;;;;;;;;;;4920999;29;20386;-61
2022/03/20 05:19:41;;;;;;;9.50;5.07;;;;;;;;;;4921066;29;20203;-61
2022/03/20 05:22:10;;;;;;;14.77;5.97;;;;;;;;;;4920790;29;20211;-61
2022/03/20 05:24:38;;;;;;;15.87;5.93;;;;;;;;;;4923628;29;20290;-61
2022/03/20 05:27:05;;;;;;;8.57;4.03;;;;;;;;;;4923634;29;20726;-61
2022/03/20 05:29:33;;;;;;;7.50;3.97;;;;;;;;;;4923593;29;20656;-62
2022/03/20 05:32:00;;;;;;;10.47;5.83;;;;;;;;;;4920992;29;20269;-61
2022/03/20 05:34:27;;;;;;;14.07;6.23;;;;;;;;;;4924528;29;20243;-61
2022/03/20 05:36:57;;;;;;;11.10;5.70;;;;;;;;;;4923047;29;20215;-61
2022/03/20 05:39:24;;;;;;;8.90;5.70;;;;;;;;;;4922971;29;20785;-61
2022/03/20 05:41:51;;;;;;;10.00;6.30;;;;;;;;;;4927637;29;20267;-61
2022/03/20 05:44:19;;;;;;;10.03;6.10;;;;;;;;;;4928414;29;20211;-61
2022/03/20 05:46:48;;;;;;;12.27;5.30;;;;;;;;;;4928134;29;20219;-60
2022/03/20 05:49:16;;;;;;;9.67;6.27;;;;;;;;;;4928396;29;20258;-61
2022/03/20 05:51:43;;;;;;;12.43;6.67;;;;;;;;;;4925710;29;20710;-60
2022/03/20 05:54:12;;;;;;;7.67;4.43;;;;;;;;;;4928443;29;20238;-60
2022/03/20 05:59:23;;;;;;;10.40;6.30;;;;;;;;;;4930834;29;20246;-61
2022/03/20 06:01:51;;;;;;;11.03;5.90;;;;;;;;;;4928546;29;20211;-61
2022/03/20 06:04:18;;;;;;;12.63;7.37;;;;;;;;;;4933905;29;20805;-61
2022/03/20 06:06:45;;;;;;;8.33;6.10;;;;;;;;;;4933053;29;20204;-63
2022/03/20 06:09:14;;;;;;;13.80;7.40;;;;;;;;;;4932580;29;20216;-61
2022/03/20 06:11:41;;;;;;;7.40;5.07;;;;;;;;;;4931326;29;20789;-61
2022/03/20 06:14:08;;;;;;;13.37;6.57;;;;;;;;;;4925804;29;20212;-63
2022/03/20 06:16:35;;;;;;;13.20;7.90;;;;;;;;;;4941928;29;20213;-61
2022/03/20 06:19:05;;;;;;;9.53;5.67;;;;;;;;;;4932471;29;20219;-61
2022/03/20 06:21:32;;;;;;;13.90;7.33;;;;;;;;;;4931039;29;20683;-61
2022/03/20 06:23:59;;;;;;;13.43;7.13;;;;;;;;;;4931013;29;20734;-61
2022/03/20 06:26:27;;;;;;;10.20;6.40;;;;;;;;;;4931216;29;20242;-61
2022/03/20 06:28:54;;;;;;;21.70;7.50;;;;;;;;;;4930892;29;20218;-61
2022/03/20 06:31:22;;;;;;;19.47;7.93;;;;;;;;;;4928814;29;20212;-61
2022/03/20 06:33:49;;;;;;;13.37;5.83;;;;;;;;;;4930672;29;20671;-61
2022/03/20 06:36:16;;;;;;;21.47;7.53;;;;;;;;;;4929908;29;20238;-62
2022/03/20 06:38:43;;;;;;;12.63;7.37;;;;;;;;;;4930484;29;20205;-62
2022/03/20 06:41:10;;;;;;;10.90;5.43;;;;;;;;;;4927663;29;20216;-62
2022/03/20 06:43:39;;;;;;;14.60;6.77;;;;;;;;;;4930994;29;20707;-61
2022/03/20 06:46:07;;;;;;;9.93;6.30;;;;;;;;;;4929501;29;20252;-61
2022/03/20 06:48:34;;;;;;;14.10;7.53;;;;;;;;;;4930685;29;20216;-61
2022/03/20 06:51:01;;;;;;;14.40;7.40;;;;;;;;;;4931162;29;20271;-62
2022/03/20 06:53:29;;;;;;;8.93;5.43;;;;;;;;;;4930845;29;20254;-62
2022/03/20 06:55:56;;;;;;;12.03;6.97;;;;;;;;;;4929877;29;20226;-62
2022/03/20 06:58:23;;;;;;;13.77;7.40;;;;;;;;;;4930463;29;20275;-62
2022/03/20 07:00:52;;;;;;;14.87;4.80;;;;;;;;;;4931239;29;20217;-62
2022/03/20 07:03:19;;;;;;;11.70;6.10;;;;;;;;;;4930489;29;20357;-62
2022/03/20 07:05:46;;;;;;;8.27;5.73;;;;;;;;;;4929461;29;20204;-62
2022/03/20 07:08:13;;;;;;;11.47;7.17;;;;;;;;;;4930704;29;20212;-62
2022/03/20 07:10:42;;;;;;;14.03;6.67;;;;;;;;;;4929642;29;20272;-62
2022/03/20 07:15:58;;;;;;;10.33;4.00;;;;;;;;;;4928966;29;20250;-62
2022/03/20 07:18:26;;;;;;;12.20;7.50;;;;;;;;;;4933552;29;20293;-62
2022/03/20 07:20:54;;;;;;;6.13;3.40;;;;;;;;;;4932141;29;20285;-61
2022/03/20 07:23:22;;;;;;;16.20;6.63;;;;;;;;;;4933135;29;20240;-62
2022/03/20 07:31:20;;;;;;;20.33;8.53;;;;;;;;;;4932711;29;20210;-60
2022/03/20 07:33:48;;;;;;;9.83;5.70;;;;;;;;;;4932557;29;20250;-60
2022/03/20 07:36:15;;;;;;;10.03;5.03;;;;;;;;;;4932707;29;20247;-61
2022/03/20 07:38:42;;;;;;;11.10;5.90;;;;;;;;;;4931740;29;20212;-60
2022/03/20 07:41:09;;;;;;;11.50;6.77;;;;;;;;;;4931794;29;20219;-61
2022/03/20 07:43:36;;;;;;;19.20;8.70;;;;;;;;;;4932403;29;20211;-60
2022/03/20 07:46:06;;;;;;;7.23;4.47;;;;;;;;;;4932384;29;20212;-61
2022/03/20 07:48:34;;;;;;;12.37;6.20;;;;;;;;;;4928382;29;20314;-61
2022/03/20 07:51:01;;;;;;;14.40;6.83;;;;;;;;;;4927701;29;20219;-62
2022/03/20 07:53:28;;;;;;;14.47;7.87;;;;;;;;;;4932051;29;20235;-62
2022/03/20 07:55:55;;;;;;;12.47;6.70;;;;;;;;;;4931968;29;20208;-62
2022/03/20 07:58:22;;;;;;;14.20;7.23;;;;;;;;;;4928146;29;20218;-60
2022/03/20 08:00:49;;;;;;;15.43;7.67;;;;;;;;;;4919408;29;20211;-60
2022/03/20 08:03:17;;;;;;;18.33;6.50;;;;;;;;;;4932519;29;20215;-60
2022/03/20 08:05:45;;;;;;;13.80;7.23;;;;;;;;;;4932085;29;20724;-61
2022/03/20 08:08:15;;;;;;;11.90;7.53;;;;;;;;;;4932382;29;20223;-62
2022/03/20 08:10:43;;;;;;;10.63;6.10;;;;;;;;;;4931948;29;20266;-62
2022/03/20 08:13:11;;;;;;;13.47;7.77;;;;;;;;;;4932131;29;20231;-61
2022/03/20 08:15:38;;;;;;;11.57;6.00;;;;;;;;;;4932237;29;20218;-61
2022/03/20 08:18:06;;;;;;;15.13;8.07;;;;;;;;;;4931805;29;20215;-61
2022/03/20 08:20:33;;;;;;;15.70;7.50;;;;;;;;;;4931652;29;20759;-62
2022/03/20 08:23:01;;;;;;;12.83;6.30;;;;;;;;;;4931167;29;20216;-62
2022/03/20 08:25:28;;;;;;;19.13;8.90;;;;;;;;;;4931953;29;20215;-62
2022/03/20 08:27:55;;;;;;;16.53;8.10;;;;;;;;;;4932086;29;20632;-62
2022/03/20 08:30:22;;;;;;;15.30;7.70;;;;;;;;;;4931667;29;20618;-60
2022/03/20 08:32:50;;;;;;;13.90;7.93;;;;;;;;;;4930905;29;20223;-60
2022/03/20 08:35:19;;;;;;;15.60;9.03;;;;;;;;;;4930389;29;20212;-60
2022/03/20 08:37:46;;;;;;;17.67;7.80;;;;;;;;;;4931422;29;20203;-60
2022/03/20 08:40:16;;;;;;;14.90;7.83;;;;;;;;;;4931608;29;20279;-62
2022/03/20 08:42:45;;;;;;;5.87;3.60;;;;;;;;;;4930958;29;20681;-60
2022/03/20 08:45:12;;;;;;;17.60;8.10;;;;;;;;;;4931222;29;20254;-60
2022/03/20 08:47:40;;;;;;;15.67;8.03;;;;;;;;;;4930730;29;20243;-60
2022/03/20 08:50:07;;;;;;;15.33;9.00;;;;;;;;;;4930156;29;20212;-61
2022/03/20 08:52:35;;;;;;;17.10;8.00;;;;;;;;;;4929778;29;20230;-61
2022/03/20 08:55:09;;;;;;;13.33;8.33;;;;;;;;;;4931601;29;20733;-61
2022/03/20 08:57:38;;;;;;;13.97;8.13;;;;;;;;;;4931516;29;20239;-62
2022/03/20 09:00:05;;;;;;;13.57;6.53;;;;;;;;;;4930497;29;20214;-61
2022/03/20 09:02:32;;;;;;;16.90;9.53;;;;;;;;;;4930080;29;20581;-62
2022/03/20 09:04:59;;;;;;;18.03;9.30;;;;;;;;;;4931032;29;20216;-61
2022/03/20 09:07:27;;;;;;;14.63;8.67;;;;;;;;;;4931028;29;20618;-62
2022/03/20 09:09:54;;;;;;;16.67;9.93;;;;;;;;;;4930914;29;20222;-60
2022/03/20 09:12:21;;;;;;;13.53;8.73;;;;;;;;;;4931171;29;20234;-62
2022/03/20 09:14:49;;;;;;;20.43;10.37;;;;;;;;;;4930113;29;20955;-62
2022/03/20 09:20:01;;;;;;;17.73;9.87;;;;;;;;;;4930727;29;20757;-62
2022/03/20 09:22:29;;;;;;;8.30;6.30;;;;;;;;;;4931373;29;20219;-62
2022/03/20 09:24:56;;;;;;;15.90;8.83;;;;;;;;;;4935816;29;20687;-63
2022/03/20 09:27:23;;;;;;;22.30;12.98;;;;;;;;;;4929934;29;21315;-61
2022/03/20 09:29:52;;;;;;;16.37;10.37;;;;;;;;;;4928354;29;20302;-61
2022/03/20 09:32:20;;;;;;;16.27;9.40;;;;;;;;;;4929921;29;20243;-62
2022/03/20 09:34:47;;;;;;;19.00;10.37;;;;;;;;;;4933023;29;20243;-60
2022/03/20 09:37:14;;;;;;;18.90;9.60;;;;;;;;;;4933034;29;20204;-60
2022/03/20 09:39:41;;;;;;;16.73;9.83;;;;;;;;;;4929965;29;20215;-60
2022/03/20 09:42:09;;;;;;;16.97;9.53;;;;;;;;;;4933304;29;20216;-61
2022/03/20 09:44:39;;;;;;;16.80;9.30;;;;;;;;;;4933001;29;20207;-60
2022/03/20 09:47:09;;;;;;;12.97;7.60;;;;;;;;;;4932879;29;20227;-61
2022/03/20 09:49:37;;;;;;;21.40;10.57;;;;;;;;;;4932490;29;20225;-61
2022/03/20 09:52:05;;;;;;;14.70;9.63;;;;;;;;;;4933553;29;20212;-60
2022/03/20 09:54:32;;;;;;;17.37;9.77;;;;;;;;;;4932821;29;20207;-59
2022/03/20 09:57:02;;;;;;;15.87;9.17;;;;;;;;;;4933494;29;20734;-61
2022/03/20 09:59:30;;;;;;;17.67;10.20;;;;;;;;;;4933264;29;20706;-61
2022/03/20 10:02:02;;;;;;;17.60;9.87;;;;;;;;;;4933425;29;20215;-61
2022/03/20 10:04:31;;;;;;;19.10;10.07;;;;;;;;;;4933437;29;20208;-61
2022/03/20 10:06:59;;;;;;;18.93;10.73;;;;;;;;;;4932500;29;20219;-61
2022/03/20 10:09:26;;;;;;;22.43;10.63;;;;;;;;;;4932625;29;20299;-60
2022/03/20 10:11:54;;;;;;;16.07;9.53;;;;;;;;;;4933495;29;20706;-60
2022/03/20 10:14:22;;;;;;;19.53;10.20;;;;;;;;;;4932926;29;20231;-61
2022/03/20 10:16:50;;;;;;;18.73;10.30;;;;;;;;;;4932620;29;20212;-61
2022/03/20 10:19:27;;;;;;;21.93;10.93;;;;;;;;;;4933000;29;20212;-61
2022/03/20 10:21:56;;;;;;;13.13;7.63;;;;;;;;;;4926360;29;20215;-62
2022/03/20 10:24:24;;;;;;;17.93;9.00;;;;;;;;;;4927146;29;20673;-62
2022/03/20 10:26:54;;;;;;;17.83;10.30;;;;;;;;;;4923093;29;20224;-62
2022/03/20 10:29:21;;;;;;;19.83;10.13;;;;;;;;;;4929353;29;20393;-62
2022/03/20 10:31:49;;;;;;;14.63;9.17;;;;;;;;;;4933204;29;20219;-61
2022/03/20 10:34:16;;;;;;;17.10;9.63;;;;;;;;;;4932069;29;20338;-61
2022/03/20 10:36:44;;;;;;;15.57;9.87;;;;;;;;;;4932896;29;20302;-62
2022/03/20 10:39:14;;;;;;;16.17;9.43;;;;;;;;;;4932874;29;20270;-61
2022/03/20 10:41:41;;;;;;;17.00;9.47;;;;;;;;;;4932394;29;20216;-62
2022/03/20 10:44:15;;;;;;;17.00;9.27;;;;;;;;;;4930976;29;20608;-62
2022/03/20 10:46:43;;;;;;;18.03;10.23;;;;;;;;;;4933549;29;20232;-61
2022/03/20 10:49:11;;;;;;;17.53;9.77;;;;;;;;;;4931543;29;20219;-61
2022/03/20 10:51:40;;;;;;;15.30;9.40;;;;;;;;;;4932834;29;20208;-61
2022/03/20 10:54:08;;;;;;;11.17;6.93;;;;;;;;;;4932106;29;20263;-62
2022/03/20 10:56:37;;;;;;;17.07;9.93;;;;;;;;;;4932308;29;20215;-60
2022/03/20 10:59:13;;;;;;;19.30;10.83;;;;;;;;;;4932449;29;20211;-60
2022/03/20 11:01:43;;;;;;;19.47;11.23;;;;;;;;;;4932212;29;20493;-62
2022/03/20 11:04:11;;;;;;;18.57;10.70;;;;;;;;;;4921824;29;20259;-60
2022/03/20 11:06:38;;;;;;;19.08;11.02;;;;;;;;;;4932061;29;20718;-60
2022/03/20 11:09:06;;;;;;;17.08;9.57;;;;;;;;;;4926604;29;20212;-61
2022/03/20 11:11:35;;;;;;;18.27;10.03;;;;;;;;;;4931297;29;20442;-64
2022/03/20 11:14:04;;;;;;;17.23;10.80;;;;;;;;;;4931645;29;20279;-61
2022/03/20 11:16:35;;;;;;;18.00;10.77;;;;;;;;;;4930576;29;20223;-61
2022/03/20 11:19:03;;;;;;;19.07;10.97;;;;;;;;;;4926387;29;20211;-61
2022/03/20 11:21:31;;;;;;;15.27;8.43;;;;;;;;;;4930183;29;20216;-61
2022/03/20 11:23:59;;;;;;;17.03;9.53;;;;;;;;;;4941514;29;20203;-61
2022/03/20 11:26:27;;;;;;;17.35;10.55;;;;;;;;;;4941450;29;20219;-61
2022/03/20 11:28:58;;;;;;;17.03;10.27;;;;;;;;;;4933588;29;20211;-61
2022/03/20 11:31:26;;;;;;;14.77;9.43;;;;;;;;;;4920855;29;20208;-61
2022/03/20 11:33:55;;;;;;;14.70;9.48;;;;;;;;;;4926030;29;20927;-61
2022/03/20 11:36:22;;;;;;;21.58;10.80;;;;;;;;;;4927434;29;20687;-64
2022/03/20 11:39:04;;;;;;;13.73;7.80;;;;;;;;;;4927984;29;20295;-61
2022/03/20 11:41:31;;;;;;;16.60;9.45;;;;;;;;;;4927549;29;20609;-61
2022/03/20 11:44:14;;;;;;;17.63;9.20;;;;;;;;;;4923779;29;20296;-61
2022/03/20 11:46:43;;;;;;;16.75;8.88;;;;;;;;;;4925865;29;20219;-62
2022/03/20 11:49:29;;;;;;;13.20;9.38;;;;;;;;;;4927679;29;20242;-62
2022/03/20 11:52:03;;;;;;;12.43;8.93;;;;;;;;;;4927767;29;20298;-61
2022/03/20 11:54:31;;;;;;;13.10;7.40;;;;;;;;;;4921796;29;20726;-61
2022/03/20 11:57:00;;;;;;;15.40;8.32;;;;;;;;;;4927502;29;20204;-63
2022/03/20 11:59:45;;;;;;;12.43;8.00;;;;;;;;;;4914196;29;20207;-62
2022/03/20 12:02:15;;;;;;;12.97;8.10;;;;;;;;;;4926000;29;20214;-63
2022/03/20 12:04:49;;;;;;;11.60;8.13;;;;;;;;;;4919626;29;20231;-63
2022/03/20 12:07:21;;;;;;;11.40;7.73;;;;;;;;;;4918958;29;20214;-63
2022/03/20 12:10:06;;;;;;;12.67;8.50;;;;;;;;;;4927773;29;20233;-63
2022/03/20 12:12:49;;;;;;;13.10;8.27;;;;;;;;;;4927445;29;20223;-63
2022/03/20 12:15:20;;;;;;;13.63;8.00;;;;;;;;;;4927516;29;20212;-62
2022/03/20 12:18:02;;;;;;;14.88;8.65;;;;;;;;;;4927961;29;20279;-63
2022/03/20 12:20:48;;;;;;;12.82;8.23;;;;;;;;;;4926645;29;20299;-62
2022/03/20 12:23:35;;;;;;;13.57;7.50;;;;;;;;;;4927038;29;20677;-63
2022/03/20 12:26:17;;;;;;;12.30;7.15;;;;;;;;;;4914123;29;20219;-64
2022/03/20 12:28:48;;;;;;;10.15;7.00;;;;;;;;;;4916178;29;20203;-64
2022/03/20 12:31:26;;;;;;;12.18;7.20;;;;;;;;;;4927793;29;20662;-62
2022/03/20 12:34:08;;;;;;;10.88;6.63;;;;;;;;;;4926411;29;20578;-63
2022/03/20 12:36:36;;;;;;;9.15;6.45;;;;;;;;;;4927205;29;20222;-62
2022/03/20 12:39:03;;;;;;;12.02;6.82;;;;;;;;;;4927613;29;20208;-62
2022/03/20 12:41:30;;;;;;;11.63;6.75;;;;;;;;;;4927583;29;20428;-62
2022/03/20 12:43:59;;;;;;;9.48;6.30;;;;;;;;;;4924838;29;20227;-63
2022/03/20 12:46:26;;;;;;;10.90;6.65;;;;;;;;;;4909822;29;20530;-62
2022/03/20 12:48:54;;;;;;;12.70;6.32;;;;;;;;;;4927499;29;20211;-64
2022/03/20 12:51:32;;;;;;;12.32;7.15;;;;;;;;;;4923676;29;20702;-62
2022/03/20 12:54:04;;;;;;;8.07;6.13;;;;;;;;;;4926289;29;20243;-64
2022/03/20 12:56:32;;;;;;;7.22;5.32;;;;;;;;;;4920713;29;20674;-62
2022/03/20 12:59:00;;;;;;;8.98;6.50;;;;;;;;;;4926969;29;20266;-62
2022/03/20 13:01:27;;;;;;;8.60;6.32;;;;;;;;;;4923135;29;20215;-62
2022/03/20 13:03:54;;;;;;;7.85;6.30;;;;;;;;;;4926535;29;20208;-62
2022/03/20 13:06:21;;;;;;;8.93;5.95;;;;;;;;;;4925539;29;21080;-62
2022/03/20 13:08:48;;;;;;;9.23;6.05;;;;;;;;;;4930892;29;20263;-63
2022/03/20 13:14:03;;;;;;;7.68;5.95;;;;;;;;;;4932190;29;20246;-62
2022/03/20 13:16:30;;;;;;;5.93;3.88;;;;;;;;;;4929953;29;20215;-61
2022/03/20 13:18:57;;;;;;;9.90;6.03;;;;;;;;;;4929832;29;20215;-61
2022/03/20 13:21:24;;;;;;;8.25;6.43;;;;;;;;;;4930429;29;20215;-61
2022/03/20 13:23:52;;;;;;;6.75;4.40;;;;;;;;;;4930934;29;20584;-62
2022/03/20 13:26:22;;;;;;;11.40;6.45;;;;;;;;;;4930793;29;20215;-61
2022/03/20 13:28:49;;;;;;;11.95;6.38;;;;;;;;;;4930111;29;20208;-62
2022/03/20 13:31:17;;;;;;;11.73;7.25;;;;;;;;;;4930286;29;20219;-62
2022/03/20 13:33:51;;;;;;;8.05;5.72;;;;;;;;;;4930140;29;20338;-61
2022/03/20 13:36:18;;;;;;;8.68;5.57;;;;;;;;;;4922844;29;20556;-62
2022/03/20 13:38:46;;;;;;;10.52;5.32;;;;;;;;;;4912798;29;20216;-62
2022/03/20 13:41:14;;;;;;;11.63;5.70;;;;;;;;;;4918607;29;20218;-61
2022/03/20 13:43:43;;;;;;;8.07;5.72;;;;;;;;;;4929635;29;20788;-62
2022/03/20 13:46:11;;;;;;;9.52;5.53;;;;;;;;;;4929896;29;20220;-63
2022/03/20 13:48:38;;;;;;;9.73;6.40;;;;;;;;;;4929318;29;20686;-62
2022/03/20 13:51:06;;;;;;;9.85;5.80;;;;;;;;;;4924677;29;20216;-61
2022/03/20 13:53:33;;;;;;;7.85;5.63;;;;;;;;;;4929887;29;20227;-61
2022/03/20 13:56:00;;;;;;;13.88;6.53;;;;;;;;;;4929688;29;20220;-64
2022/03/20 13:58:27;;;;;;;12.38;6.15;;;;;;;;;;4930307;29;20277;-62
2022/03/20 14:01:01;;;;;;;8.48;5.65;;;;;;;;;;4929471;29;20204;-61
2022/03/20 14:03:30;;;;;;;8.73;5.47;;;;;;;;;;4927839;29;20294;-63
2022/03/20 14:05:58;;;;;;;7.13;5.88;;;;;;;;;;4929474;29;20215;-64
2022/03/20 14:08:26;;;;;;;7.88;5.50;;;;;;;;;;4928732;29;20212;-61
2022/03/20 14:10:55;;;;;;;7.40;5.68;;;;;;;;;;4919552;29;20334;-59
2022/03/20 14:13:23;;;;;;;10.40;5.40;;;;;;;;;;4929592;29;20218;-62
2022/03/20 14:15:57;;;;;;;10.75;5.65;;;;;;;;;;4928727;29;20232;-62
2022/03/20 14:18:26;;;;;;;9.90;6.15;;;;;;;;;;4928631;29;20222;-61
2022/03/20 14:21:08;;;;;;;9.57;5.65;;;;;;;;;;4928624;29;20215;-60
2022/03/20 14:23:36;;;;;;;5.93;5.10;;;;;;;;;;4927318;29;20534;-63
2022/03/20 14:26:03;;;;;;;7.78;5.32;;;;;;;;;;4929030;29;20211;-61
2022/03/20 14:28:35;;;;;;;7.28;5.68;;;;;;;;;;4927129;29;20222;-63
2022/03/20 14:39:27;;;;;;;6.00;4.35;;;;;;;;;;4929333;29;20324;-61
2022/03/20 14:41:55;;;;;;;9.82;5.45;;;;;;;;;;4927937;29;20211;-64
2022/03/20 14:44:22;;;;;;;5.85;4.68;;;;;;;;;;4928885;29;20215;-62
2022/03/20 14:46:50;;;;;;;7.25;4.30;;;;;;;;;;4927830;29;20219;-63
2022/03/20 14:49:20;;;;;;;8.93;5.10;;;;;;;;;;4929012;29;20315;-62
2022/03/20 14:51:47;;;;;;;8.13;4.28;;;;;;;;;;4924684;29;20204;-64
2022/03/20 14:54:14;;;;;;;6.25;4.97;;;;;;;;;;4928925;29;20239;-62
2022/03/20 14:56:42;;;;;;;59.80;18.50;;;;;;;;;;4923002;29;20219;-62
2022/03/20 14:59:10;;;;;;;110.80;27.85;;;;;;;;;;4916182;29;20215;-62
2022/03/20 15:01:42;;;;;;;5.55;4.47;;;;;;;;;;4928683;29;20782;-61
2022/03/20 15:04:09;;;;;;;8.55;4.88;;;;;;;;;;4927818;29;20255;-61
2022/03/20 15:06:39;;;;;;;5.22;4.45;;;;;;;;;;4927481;29;20710;-61
2022/03/20 15:11:51;;;;;;;5.88;4.57;;;;;;;;;;4928601;29;21014;-62
2022/03/20 15:14:18;;;;;;;7.55;4.47;;;;;;;;;;4928463;29;20231;-61
2022/03/20 15:16:45;;;;;;;4.85;4.25;;;;;;;;;;4928146;29;20222;-61
2022/03/20 15:19:13;;;;;;;7.85;4.90;;;;;;;;;;4924016;29;20199;-62
2022/03/20 15:21:41;;;;;;;4.82;4.38;;;;;;;;;;4927949;29;20777;-63
2022/03/20 15:24:09;;;;;;;5.45;4.20;;;;;;;;;;4927651;29;20199;-63
2022/03/20 15:26:36;;;;;;;4.65;4.20;;;;;;;;;;4927740;29;20323;-62
2022/03/20 15:29:03;;;;;;;7.07;4.00;;;;;;;;;;4923368;29;20242;-62
2022/03/20 15:31:31;;;;;;;7.45;4.43;;;;;;;;;;4927035;29;20215;-62